createdAt,value
2022-12-05T00:02:11.188Z,38.33
2022-12-05T00:04:39.819Z,46.40
2022-12-05T00:07:08.467Z,40.57
2022-12-05T00:09:37.098Z,43.40
2022-12-05T00:12:05.964Z,37.80
2022-12-05T00:14:34.291Z,40.47
2022-12-05T00:17:04.180Z,48.47
2022-12-05T00:19:32.980Z,40.57
2022-12-05T00:22:01.280Z,42.70
2022-12-05T00:24:29.762Z,51.40
2022-12-05T00:26:58.267Z,45.27
2022-12-05T00:29:27.308Z,39.00
2022-12-05T00:31:56.072Z,54.37
2022-12-05T00:34:26.353Z,47.43
2022-12-05T00:36:55.022Z,57.07
2022-12-05T00:39:23.469Z,51.70
2022-12-05T00:41:51.814Z,52.80
2022-12-05T00:44:20.552Z,54.40
2022-12-05T00:46:48.937Z,55.57
2022-12-05T00:49:17.599Z,51.00
2022-12-05T00:51:47.659Z,52.13
2022-12-05T00:54:18.544Z,48.90
2022-12-05T00:56:47.323Z,56.63
2022-12-05T00:59:18.483Z,43.63
2022-12-05T01:01:50.704Z,47.60
2022-12-05T01:04:22.544Z,54.10
2022-12-05T01:06:56.254Z,51.37
2022-12-05T01:09:26.167Z,52.37
2022-12-05T01:11:55.322Z,51.07
2022-12-05T01:14:26.880Z,50.37
2022-12-05T01:16:57.438Z,52.47
2022-12-05T01:19:29.163Z,46.43
2022-12-05T01:21:59.395Z,50.73
2022-12-05T01:24:29.525Z,49.77
2022-12-05T01:26:58.159Z,48.73
2022-12-05T01:29:27.221Z,50.70
2022-12-05T01:31:56.351Z,55.23
2022-12-05T01:34:25.855Z,49.20
2022-12-05T01:36:55.637Z,60.63
2022-12-05T01:39:25.530Z,52.67
2022-12-05T01:41:54.007Z,57.47
2022-12-05T01:45:01.345Z,53.20
2022-12-05T01:47:32.660Z,46.90
2022-12-05T01:50:02.154Z,52.67
2022-12-05T01:52:32.922Z,51.40
2022-12-05T01:55:09.882Z,50.53
2022-12-05T01:57:38.973Z,54.27
2022-12-05T02:00:13.602Z,48.47
2022-12-05T02:02:51.152Z,48.93
2022-12-05T02:05:24.318Z,51.87
2022-12-05T02:07:53.495Z,40.33
2022-12-05T02:10:24.070Z,45.53
2022-12-05T02:12:53.567Z,46.87
2022-12-05T02:15:40.461Z,50.70
2022-12-05T02:18:33.584Z,47.07
2022-12-05T02:21:42.164Z,42.30
2022-12-05T02:25:00.692Z,38.80
2022-12-05T02:27:46.923Z,41.67
2022-12-05T02:30:20.560Z,35.50
2022-12-05T02:33:05.557Z,30.73
2022-12-05T02:35:47.705Z,29.97
2022-12-05T02:38:31.140Z,29.03
2022-12-05T02:41:15.479Z,28.47
2022-12-05T02:43:52.569Z,26.53
2022-12-05T02:46:27.453Z,25.27
2022-12-05T02:49:01.225Z,23.07
2022-12-05T02:51:36.620Z,24.80
2022-12-05T02:54:12.661Z,27.80
2022-12-05T02:56:46.121Z,27.23
2022-12-05T02:59:21.447Z,26.93
2022-12-05T03:01:53.355Z,33.33
2022-12-05T03:04:25.945Z,26.13
2022-12-05T03:06:59.869Z,26.87
2022-12-05T03:09:36.449Z,25.70
2022-12-05T03:12:13.998Z,27.33
2022-12-05T03:14:48.295Z,29.70
2022-12-05T03:17:25.929Z,33.80
2022-12-05T03:20:06.262Z,35.43
2022-12-05T03:22:41.688Z,34.20
2022-12-05T03:25:11.911Z,34.20
2022-12-05T03:27:53.127Z,35.33
2022-12-05T03:30:24.016Z,36.83
2022-12-05T03:33:04.038Z,37.57
2022-12-05T03:35:41.307Z,37.23
2022-12-05T03:38:15.397Z,35.47
2022-12-05T03:40:49.518Z,33.70
2022-12-05T03:43:24.106Z,34.80
2022-12-05T03:46:00.402Z,32.83
2022-12-05T03:48:37.717Z,36.80
2022-12-05T03:51:11.492Z,40.80
2022-12-05T03:53:50.344Z,34.47
2022-12-05T03:56:26.229Z,39.03
2022-12-05T03:59:04.060Z,37.60
2022-12-05T04:01:36.443Z,39.33
2022-12-05T04:04:14.976Z,38.93
2022-12-05T04:06:46.689Z,38.57
2022-12-05T04:09:20.655Z,46.63
2022-12-05T04:11:56.006Z,43.20
2022-12-05T04:14:33.999Z,48.00
2022-12-05T04:17:06.528Z,45.80
2022-12-05T04:20:01.179Z,51.90
2022-12-05T04:22:30.518Z,51.70
2022-12-05T04:25:19.848Z,47.60
2022-12-05T04:27:58.048Z,45.37
2022-12-05T04:30:34.209Z,51.77
2022-12-05T04:33:07.740Z,45.97
2022-12-05T04:35:44.205Z,47.50
2022-12-05T04:38:20.796Z,56.70
2022-12-05T04:40:56.738Z,44.50
2022-12-05T04:43:27.641Z,43.73
2022-12-05T04:46:00.334Z,46.70
2022-12-05T04:48:31.592Z,43.77
2022-12-05T04:51:02.738Z,49.37
2022-12-05T04:53:33.335Z,46.90
2022-12-05T04:56:05.533Z,51.27
2022-12-05T04:58:34.210Z,45.10
2022-12-05T05:01:12.613Z,44.40
2022-12-05T05:03:45.758Z,43.83
2022-12-05T05:06:16.348Z,47.17
2022-12-05T05:08:51.181Z,43.77
2022-12-05T05:11:24.017Z,45.03
2022-12-05T05:13:53.303Z,42.90
2022-12-05T05:16:25.342Z,40.70
2022-12-05T05:18:54.647Z,48.70
2022-12-05T05:21:29.397Z,43.13
2022-12-05T05:23:58.840Z,44.10
2022-12-05T05:26:29.696Z,43.03
2022-12-05T05:29:01.419Z,44.00
2022-12-05T05:31:29.977Z,39.23
2022-12-05T05:34:01.265Z,39.50
2022-12-05T05:36:36.103Z,37.40
2022-12-05T05:39:07.281Z,37.63
2022-12-05T05:41:37.599Z,38.00
2022-12-05T05:44:06.875Z,42.70
2022-12-05T05:46:37.019Z,38.23
2022-12-05T05:49:06.145Z,37.70
2022-12-05T05:51:35.844Z,35.20
2022-12-05T05:54:04.664Z,30.03
2022-12-05T05:56:33.001Z,34.13
2022-12-05T05:59:03.722Z,36.37
2022-12-05T06:01:32.530Z,36.63
2022-12-05T06:04:01.070Z,37.77
2022-12-05T06:06:29.795Z,39.27
2022-12-05T06:08:59.573Z,34.80
2022-12-05T06:11:29.610Z,33.60
2022-12-05T06:14:01.149Z,32.00
2022-12-05T06:16:31.231Z,32.90
2022-12-05T06:19:00.871Z,37.67
2022-12-05T06:21:29.312Z,38.80
2022-12-05T06:23:59.316Z,35.00
2022-12-05T06:26:28.511Z,36.17
2022-12-05T06:28:57.116Z,35.33
2022-12-05T06:31:31.003Z,34.57
2022-12-05T06:34:02.658Z,31.60
2022-12-05T06:36:32.539Z,35.13
2022-12-05T06:39:02.533Z,33.60
2022-12-05T06:41:31.175Z,34.97
2022-12-05T06:44:02.190Z,34.37
2022-12-05T06:46:31.372Z,33.33
2022-12-05T06:49:00.532Z,38.20
2022-12-05T06:51:29.125Z,43.63
2022-12-05T06:53:57.779Z,38.93
2022-12-05T06:56:27.569Z,33.93
2022-12-05T06:58:56.662Z,35.10
2022-12-05T07:01:42.379Z,37.10
2022-12-05T07:04:20.215Z,32.33
2022-12-05T07:06:51.080Z,41.00
2022-12-05T07:09:22.112Z,37.87
2022-12-05T07:11:52.955Z,40.77
2022-12-05T07:17:10.369Z,37.20
2022-12-05T07:19:39.011Z,34.53
2022-12-05T07:22:13.673Z,41.20
2022-12-05T07:24:43.617Z,35.30
2022-12-05T07:27:13.903Z,38.13
2022-12-05T07:29:42.621Z,40.87
2022-12-05T07:32:11.358Z,39.60
2022-12-05T07:34:39.906Z,34.87
2022-12-05T07:37:08.255Z,34.07
2022-12-05T07:39:36.942Z,33.40
2022-12-05T07:42:05.638Z,33.10
2022-12-05T07:44:35.536Z,36.03
2022-12-05T07:47:03.857Z,31.57
2022-12-05T07:49:32.191Z,32.13
2022-12-05T07:52:01.938Z,33.67
2022-12-05T07:54:30.552Z,33.67
2022-12-05T07:56:59.151Z,33.53
2022-12-05T07:59:27.752Z,34.23
2022-12-05T08:01:57.581Z,33.97
2022-12-05T08:04:26.065Z,36.80
2022-12-05T08:06:54.345Z,32.43
2022-12-05T08:09:22.619Z,36.40
2022-12-05T08:11:52.843Z,31.57
2022-12-05T08:14:21.818Z,33.97
2022-12-05T08:16:50.245Z,30.30
2022-12-05T08:19:20.350Z,32.37
2022-12-05T08:21:48.846Z,34.07
2022-12-05T08:24:17.454Z,42.83
2022-12-05T08:26:45.782Z,43.30
2022-12-05T08:29:17.054Z,48.03
2022-12-05T08:31:48.328Z,41.07
2022-12-05T08:34:20.853Z,44.03
2022-12-05T08:36:50.037Z,38.43
2022-12-05T08:39:20.619Z,43.40
2022-12-05T08:41:50.027Z,39.00
2022-12-05T08:44:19.023Z,36.63
2022-12-05T08:46:50.063Z,39.23
2022-12-05T08:49:20.681Z,35.70
2022-12-05T08:51:49.351Z,34.77
2022-12-05T08:54:18.093Z,39.53
2022-12-05T08:56:46.941Z,41.10
2022-12-05T08:59:15.270Z,35.97
2022-12-05T09:01:44.052Z,38.10
2022-12-05T09:04:13.408Z,37.30
2022-12-05T09:06:43.757Z,36.47
2022-12-05T09:09:13.939Z,45.23
2022-12-05T09:11:48.878Z,39.20
2022-12-05T09:14:17.996Z,37.87
2022-12-05T09:16:48.652Z,43.17
2022-12-05T09:19:21.663Z,43.47
2022-12-05T09:21:51.356Z,42.10
2022-12-05T09:24:19.884Z,41.03
2022-12-05T09:26:48.835Z,45.53
2022-12-05T09:29:18.247Z,42.60
2022-12-05T09:31:51.792Z,43.90
2022-12-05T09:34:20.330Z,47.67
2022-12-05T09:37:05.499Z,46.63
2022-12-05T09:39:39.170Z,46.43
2022-12-05T09:42:31.045Z,40.97
2022-12-05T09:45:17.617Z,44.70
2022-12-05T09:47:58.595Z,50.00
2022-12-05T09:50:29.271Z,44.63
2022-12-05T09:53:18.019Z,55.33
2022-12-05T09:55:52.343Z,59.57
2022-12-05T09:58:42.510Z,49.07
2022-12-05T10:01:32.899Z,53.77
2022-12-05T10:04:39.092Z,55.67
2022-12-05T10:07:20.420Z,52.87
2022-12-05T10:10:06.533Z,53.43
2022-12-05T10:13:00.090Z,51.63
2022-12-05T10:15:35.120Z,55.47
2022-12-05T10:18:16.030Z,51.37
2022-12-05T10:20:52.161Z,59.70
2022-12-05T10:23:56.085Z,58.53
2022-12-05T10:26:18.918Z,59.40
2022-12-05T10:28:53.864Z,56.33
2022-12-05T10:31:28.402Z,55.33
2022-12-05T10:34:06.067Z,56.50
2022-12-05T10:36:35.256Z,50.17
2022-12-05T10:39:09.900Z,44.37
2022-12-05T10:41:40.987Z,40.30
2022-12-05T10:44:09.816Z,40.37
2022-12-05T10:46:38.506Z,45.73
2022-12-05T10:49:13.180Z,42.00
2022-12-05T10:51:42.419Z,36.97
2022-12-05T10:54:21.876Z,38.57
2022-12-05T10:56:54.486Z,35.60
2022-12-05T10:59:25.602Z,37.30
2022-12-05T11:01:57.304Z,43.40
2022-12-05T11:04:31.328Z,41.10
2022-12-05T11:07:02.580Z,43.80
2022-12-05T11:09:33.888Z,41.03
2022-12-05T11:12:19.523Z,41.90
2022-12-05T11:15:06.122Z,39.03
2022-12-05T11:17:37.964Z,35.70
2022-12-05T11:20:41.249Z,30.20
2022-12-05T11:23:24.858Z,39.60
2022-12-05T11:25:53.566Z,30.10
2022-12-05T11:28:33.994Z,34.77
2022-12-05T11:31:06.878Z,33.57
2022-12-05T11:33:37.731Z,33.77
2022-12-05T11:36:20.885Z,34.77
2022-12-05T11:38:49.850Z,43.83
2022-12-05T11:41:46.730Z,35.70
2022-12-05T11:44:51.423Z,37.00
2022-12-05T11:47:41.132Z,33.43
2022-12-05T11:50:31.939Z,39.10
2022-12-05T11:53:21.046Z,41.30
2022-12-05T11:55:59.628Z,37.73
2022-12-05T11:58:56.709Z,39.30
2022-12-05T12:01:44.787Z,43.53
2022-12-05T12:04:56.912Z,37.47
2022-12-05T12:07:40.799Z,38.63
2022-12-05T12:10:27.281Z,43.57
2022-12-05T12:13:07.249Z,43.87
2022-12-05T12:16:03.761Z,36.93
2022-12-05T12:19:11.000Z,43.20
2022-12-05T12:22:03.325Z,37.20
2022-12-05T12:24:53.890Z,48.70
2022-12-05T12:27:40.522Z,42.43
2022-12-05T12:30:18.581Z,46.30
2022-12-05T12:33:03.533Z,36.37
2022-12-05T12:35:43.043Z,39.67
2022-12-05T12:38:38.798Z,40.53
2022-12-05T12:41:19.247Z,41.37
2022-12-05T12:44:04.131Z,40.47
2022-12-05T12:46:48.634Z,41.23
2022-12-05T12:49:45.335Z,41.30
2022-12-05T12:52:21.261Z,44.63
2022-12-05T12:55:19.491Z,46.50
2022-12-05T12:58:07.513Z,47.93
2022-12-05T13:00:57.337Z,45.17
2022-12-05T13:03:32.996Z,45.47
2022-12-05T13:06:08.343Z,48.17
2022-12-05T13:08:47.116Z,48.43
2022-12-05T13:11:19.676Z,46.77
2022-12-05T13:13:54.177Z,51.37
2022-12-05T13:16:28.851Z,50.40
2022-12-05T13:18:58.559Z,53.30
2022-12-05T13:21:29.157Z,56.20
2022-12-05T13:24:03.380Z,55.47
2022-12-05T13:26:34.374Z,61.73
2022-12-05T13:29:05.854Z,59.03
2022-12-05T13:31:40.932Z,57.83
2022-12-05T13:34:46.793Z,59.97
2022-12-05T13:37:40.434Z,60.87
2022-12-05T13:40:44.227Z,74.47
2022-12-05T13:43:16.873Z,67.17
2022-12-05T13:46:04.398Z,70.63
2022-12-05T13:48:36.526Z,60.67
2022-12-05T13:51:11.276Z,67.67
2022-12-05T13:53:43.490Z,64.63
2022-12-05T13:56:46.573Z,71.73
2022-12-05T13:59:53.248Z,68.27
2022-12-05T14:02:54.225Z,68.03
2022-12-05T14:05:49.698Z,71.83
2022-12-05T14:08:51.819Z,61.53
2022-12-05T14:11:20.703Z,67.83
2022-12-05T14:13:51.168Z,69.90
2022-12-05T14:16:50.791Z,78.73
2022-12-05T14:20:07.869Z,72.33
2022-12-05T14:23:17.092Z,59.10
2022-12-05T14:26:12.692Z,74.83
2022-12-05T14:29:18.565Z,66.40
2022-12-05T14:32:05.948Z,64.13
2022-12-05T14:34:40.807Z,68.27
2022-12-05T14:37:27.223Z,67.47
2022-12-05T14:40:00.411Z,69.37
2022-12-05T14:42:40.094Z,62.70
2022-12-05T14:45:33.055Z,64.23
2022-12-05T14:48:04.509Z,63.57
2022-12-05T14:50:44.841Z,74.03
2022-12-05T14:53:26.005Z,78.43
2022-12-05T14:55:57.487Z,70.73
2022-12-05T14:58:38.581Z,67.97
2022-12-05T15:01:16.635Z,74.10
2022-12-05T15:04:07.850Z,75.00
2022-12-05T15:06:46.196Z,90.83
2022-12-05T15:09:38.031Z,75.63
2022-12-05T15:12:15.969Z,63.50
2022-12-05T15:14:58.499Z,62.70
2022-12-05T15:17:39.000Z,71.23
2022-12-05T15:20:17.718Z,68.60
2022-12-05T15:22:46.483Z,68.40
2022-12-05T15:25:29.200Z,65.13
2022-12-05T15:28:01.985Z,65.40
2022-12-05T15:30:33.289Z,61.57
2022-12-05T15:33:03.554Z,66.70
2022-12-05T15:35:35.288Z,52.93
2022-12-05T15:38:16.684Z,53.13
2022-12-05T15:40:49.095Z,56.23
2022-12-05T15:43:30.521Z,49.20
2022-12-05T15:46:10.862Z,47.80
2022-12-05T15:48:40.552Z,48.90
2022-12-05T15:51:09.668Z,45.57
2022-12-05T15:53:45.755Z,49.80
2022-12-05T15:56:21.514Z,52.83
2022-12-05T15:58:55.701Z,47.43
2022-12-05T16:01:26.637Z,60.00
2022-12-05T16:04:00.894Z,53.73
2022-12-05T16:06:35.792Z,48.47
2022-12-05T16:09:11.798Z,46.47
2022-12-05T16:11:40.971Z,52.13
2022-12-05T16:14:09.990Z,50.10
2022-12-05T16:16:40.831Z,48.07
2022-12-05T16:19:18.689Z,48.70
2022-12-05T16:22:02.126Z,49.10
2022-12-05T16:24:33.210Z,47.97
2022-12-05T16:27:07.703Z,51.90
2022-12-05T16:29:36.804Z,51.90
2022-12-05T16:32:16.480Z,47.80
2022-12-05T16:34:46.297Z,53.17
2022-12-05T16:37:28.137Z,51.90
2022-12-05T16:39:57.858Z,48.37
2022-12-05T16:42:28.247Z,42.10
2022-12-05T16:45:05.212Z,50.07
2022-12-05T16:47:58.000Z,44.03
2022-12-05T16:50:33.112Z,48.23
2022-12-05T16:53:23.453Z,47.23
2022-12-05T16:55:52.631Z,41.73
2022-12-05T16:58:27.261Z,51.50
2022-12-05T17:01:02.978Z,48.77
2022-12-05T17:03:34.848Z,52.53
2022-12-05T17:06:05.412Z,44.83
2022-12-05T17:08:33.883Z,46.67
2022-12-05T17:11:03.676Z,44.50
2022-12-05T17:13:33.072Z,50.90
2022-12-05T17:16:01.572Z,53.57
2022-12-05T17:18:31.991Z,44.30
2022-12-05T17:21:04.330Z,45.67
2022-12-05T17:23:32.985Z,48.87
2022-12-05T17:26:01.455Z,43.03
2022-12-05T17:28:30.139Z,46.17
2022-12-05T17:30:58.480Z,45.73
2022-12-05T17:33:26.842Z,41.47
2022-12-05T17:35:55.130Z,39.97
2022-12-05T17:38:25.028Z,37.13
2022-12-05T17:40:53.633Z,37.83
2022-12-05T17:43:25.341Z,43.80
2022-12-05T17:45:55.116Z,43.93
2022-12-05T17:48:23.685Z,42.57
2022-12-05T17:50:52.210Z,46.83
2022-12-05T17:53:22.638Z,61.07
2022-12-05T17:55:52.400Z,58.77
2022-12-05T17:58:21.087Z,50.03
2022-12-05T18:00:49.473Z,53.00
2022-12-05T18:03:19.968Z,45.83
2022-12-05T18:05:48.838Z,49.60
2022-12-05T18:08:18.001Z,52.87
2022-12-05T18:10:48.469Z,50.03
2022-12-05T18:13:19.293Z,46.37
2022-12-05T18:15:50.030Z,46.00
2022-12-05T18:18:19.488Z,43.93
2022-12-05T18:20:48.187Z,42.40
2022-12-05T18:23:17.239Z,47.80
2022-12-05T18:25:47.017Z,43.83
2022-12-05T18:28:17.927Z,47.13
2022-12-05T18:30:49.338Z,45.77
2022-12-05T18:33:17.664Z,60.50
2022-12-05T18:35:46.300Z,50.07
2022-12-05T18:38:14.586Z,45.13
2022-12-05T18:40:43.111Z,40.73
2022-12-05T18:43:11.466Z,45.50
2022-12-05T18:45:39.970Z,44.53
2022-12-05T18:48:31.354Z,50.70
2022-12-05T18:51:08.760Z,48.23
2022-12-05T18:53:37.152Z,51.90
2022-12-05T18:56:24.724Z,53.93
2022-12-05T18:58:59.751Z,49.07
2022-12-05T19:01:30.804Z,54.93
2022-12-05T19:04:02.049Z,53.73
2022-12-05T19:06:33.674Z,46.57
2022-12-05T19:09:05.968Z,48.00
2022-12-05T19:11:35.620Z,50.63
2022-12-05T19:14:06.486Z,47.57
2022-12-05T19:16:35.960Z,52.90
2022-12-05T19:19:10.420Z,47.87
2022-12-05T19:21:38.939Z,42.33
2022-12-05T19:24:09.844Z,40.70
2022-12-05T19:26:38.497Z,44.90
2022-12-05T19:29:07.894Z,37.77
2022-12-05T19:31:36.834Z,36.67
2022-12-05T19:34:09.359Z,32.63
2022-12-05T19:36:40.217Z,36.37
2022-12-05T19:39:11.123Z,43.20
2022-12-05T19:41:39.993Z,46.73
2022-12-05T19:44:09.012Z,40.57
2022-12-05T19:46:38.557Z,36.10
2022-12-05T19:49:12.086Z,40.90
2022-12-05T19:51:40.537Z,38.67
2022-12-05T19:54:11.503Z,37.37
2022-12-05T19:56:40.597Z,40.73
2022-12-05T19:59:09.155Z,37.50
2022-12-05T20:01:40.610Z,38.90
2022-12-05T20:04:12.675Z,44.03
2022-12-05T20:06:43.300Z,35.57
2022-12-05T20:09:14.211Z,32.27
2022-12-05T20:11:47.196Z,35.10
2022-12-05T20:14:21.501Z,36.63
2022-12-05T20:16:50.441Z,37.13
2022-12-05T20:19:20.243Z,33.10
2022-12-05T20:21:48.841Z,36.93
2022-12-05T20:24:17.533Z,32.73
2022-12-05T20:26:47.167Z,38.97
2022-12-05T20:29:15.491Z,40.17
2022-12-05T20:31:44.637Z,36.63
2022-12-05T20:34:15.835Z,42.87
2022-12-05T20:36:45.572Z,47.63
2022-12-05T20:39:17.142Z,44.40
2022-12-05T20:41:49.957Z,46.30
2022-12-05T20:44:18.418Z,45.03
2022-12-05T20:46:47.137Z,40.93
2022-12-05T20:49:15.840Z,43.00
2022-12-05T20:51:47.849Z,46.67
2022-12-05T20:54:18.450Z,41.47
2022-12-05T20:56:47.597Z,37.73
2022-12-05T20:59:16.314Z,33.07
2022-12-05T21:01:44.918Z,43.07
2022-12-05T21:04:14.196Z,41.20
2022-12-05T21:06:46.712Z,40.77
2022-12-05T21:09:26.816Z,33.70
2022-12-05T21:11:55.701Z,28.00
2022-12-05T21:14:24.382Z,28.77
2022-12-05T21:16:53.302Z,35.27
2022-12-05T21:19:22.539Z,32.27
2022-12-05T21:21:54.516Z,33.43
2022-12-05T21:24:23.642Z,34.87
2022-12-05T21:26:52.849Z,32.07
2022-12-05T21:29:21.784Z,32.77
2022-12-05T21:31:52.841Z,34.23
2022-12-05T21:34:22.413Z,40.90
2022-12-05T21:36:52.734Z,43.90
2022-12-05T21:39:21.274Z,43.90
2022-12-05T21:41:50.018Z,53.73
2022-12-05T21:44:20.608Z,50.40
2022-12-05T21:46:49.675Z,47.37
2022-12-05T21:49:18.109Z,44.87
2022-12-05T21:51:46.457Z,49.80
2022-12-05T21:54:16.173Z,44.57
2022-12-05T21:56:45.279Z,55.33
2022-12-05T21:59:14.101Z,35.40
2022-12-05T22:01:42.541Z,33.17
2022-12-05T22:04:10.936Z,30.93
2022-12-05T22:06:39.279Z,30.47
2022-12-05T22:09:07.887Z,36.97
2022-12-05T22:11:37.557Z,34.93
2022-12-05T22:14:06.355Z,29.23
2022-12-05T22:16:34.758Z,31.30
2022-12-05T22:19:03.821Z,35.80
2022-12-05T22:21:34.110Z,37.03
2022-12-05T22:24:03.087Z,37.63
2022-12-05T22:26:31.460Z,35.13
2022-12-05T22:29:01.439Z,36.47
2022-12-05T22:31:30.226Z,33.23
2022-12-05T22:33:58.652Z,40.90
2022-12-05T22:36:27.651Z,47.20
2022-12-05T22:38:55.975Z,40.63
2022-12-05T22:41:27.524Z,46.87
2022-12-05T22:43:58.822Z,43.23
2022-12-05T22:46:30.134Z,41.70
2022-12-05T22:48:59.394Z,46.57
2022-12-05T22:51:27.958Z,43.47
2022-12-05T22:53:56.868Z,49.67
2022-12-05T22:56:28.958Z,42.23
2022-12-05T22:59:00.041Z,45.20
2022-12-05T23:01:32.224Z,40.17
2022-12-05T23:04:03.178Z,42.07
2022-12-05T23:06:34.289Z,44.20
2022-12-05T23:09:04.542Z,44.73
2022-12-05T23:11:33.490Z,39.57
2022-12-05T23:14:02.793Z,41.57
2022-12-05T23:16:34.947Z,46.23
2022-12-05T23:19:06.586Z,41.67
2022-12-05T23:21:37.136Z,43.27
2022-12-05T23:24:09.697Z,39.10
2022-12-05T23:26:41.797Z,42.97
2022-12-05T23:29:13.087Z,43.17
2022-12-05T23:31:43.939Z,52.53
2022-12-05T23:34:12.880Z,44.37
2022-12-05T23:36:41.692Z,49.30
2022-12-05T23:39:10.553Z,44.77
2022-12-05T23:41:39.047Z,45.60
2022-12-05T23:44:07.605Z,46.60
2022-12-05T23:46:36.311Z,46.63
2022-12-05T23:49:06.241Z,54.00
2022-12-05T23:51:39.932Z,43.00
2022-12-05T23:54:11.799Z,41.80
2022-12-05T23:56:40.724Z,47.73
2022-12-05T23:59:10.278Z,43.33
